Time;durP1;ratioP1;P1;durP2;ratioP2;P2;SDS_P1;SDS_P2;PMS_P1;PMS_P2;Temp;Humidity;BMP_temperature;BMP_pressure;BME280_temperature;BME280_humidity;BME280_pressure;Samples;Min_cycle;Max_cycle;Signal;HPM_P1;HPM_P2
2021/01/17 00:00:48;;;;;;;;;;;19.40;56.20;;;;;;5072446;28;1691;-68
2021/01/17 00:03:13;;;;;;;;;;;19.40;56.20;;;;;;5054168;28;1928;-69
2021/01/17 00:05:39;;;;;;;;;;;19.40;56.20;;;;;;5071702;28;1373;-67
2021/01/17 00:08:08;;;;;;;;;;;19.40;56.20;;;;;;5054093;28;1215;-67
2021/01/17 00:10:33;;;;;;;;;;;19.40;56.20;;;;;;5041595;28;1092;-67
2021/01/17 00:12:59;;;;;;;;;;;19.30;56.10;;;;;;5053522;28;1676;-66
2021/01/17 00:15:24;;;;;;;;;;;19.30;56.20;;;;;;5053862;28;1447;-67
2021/01/17 00:17:50;;;;;;;;;;;19.30;56.20;;;;;;5071511;28;1525;-67
2021/01/17 00:20:19;;;;;;;;;;;19.30;56.20;;;;;;5053939;28;1602;-68
2021/01/17 00:22:45;;;;;;;;;;;19.30;56.20;;;;;;5070902;28;1973;-68
2021/01/17 00:25:11;;;;;;;;;;;19.30;56.20;;;;;;5053445;28;1454;-67
2021/01/17 00:27:37;;;;;;;;;;;19.30;56.20;;;;;;5071706;28;1313;-68
2021/01/17 00:30:03;;;;;;;;;;;19.30;56.20;;;;;;5054541;28;1302;-68
2021/01/17 00:32:28;;;;;;;;;;;19.30;56.20;;;;;;5074981;28;1379;-69
2021/01/17 00:34:54;;;;;;;;;;;19.30;56.20;;;;;;5075468;28;1250;-69
2021/01/17 00:37:19;;;;;;;;;;;19.40;56.30;;;;;;5057409;28;1316;-68
2021/01/17 00:39:45;;;;;;;;;;;19.30;56.20;;;;;;5057833;28;1292;-69
2021/01/17 00:42:11;;;;;;;;;;;19.30;56.30;;;;;;5040904;28;1967;-69
2021/01/17 00:44:36;;;;;;;;;;;19.30;56.30;;;;;;5057194;28;1344;-69
2021/01/17 00:47:02;;;;;;;;;;;19.30;56.30;;;;;;5075136;28;1330;-69
2021/01/17 00:49:27;;;;;;;;;;;19.30;56.30;;;;;;5075590;28;1311;-69
2021/01/17 00:51:53;;;;;;;;;;;19.30;56.30;;;;;;5071011;28;1242;-68
2021/01/17 00:54:18;;;;;;;;;;;19.30;56.30;;;;;;5057223;28;1127;-68
2021/01/17 00:56:44;;;;;;;;;;;19.30;56.30;;;;;;5075106;28;1314;-69
2021/01/17 00:59:09;;;;;;;;;;;19.30;56.30;;;;;;5074684;28;1253;-69
2021/01/17 01:01:38;;;;;;;;;;;19.30;56.30;;;;;;5057324;28;1399;-69
2021/01/17 01:04:04;;;;;;;;;;;19.30;56.30;;;;;;5074981;28;1905;-69
2021/01/17 01:06:29;;;;;;;;;;;19.30;56.90;;;;;;5074972;28;1338;-69
2021/01/17 01:08:55;;;;;;;;;;;19.30;56.40;;;;;;5074912;28;1313;-69
2021/01/17 01:11:20;;;;;;;;;;;19.30;56.40;;;;;;5057170;28;1076;-67
2021/01/17 01:13:46;;;;;;;;;;;19.30;56.40;;;;;;5056753;28;1140;-68
2021/01/17 01:16:12;;;;;;;;;;;19.20;56.30;;;;;;5074825;28;1371;-68
2021/01/17 01:18:38;;;;;;;;;;;19.20;56.40;;;;;;5056971;28;1404;-67
2021/01/17 01:21:03;;;;;;;;;;;19.30;56.40;;;;;;5074862;28;1369;-68
2021/01/17 01:23:29;;;;;;;;;;;19.30;56.40;;;;;;5074564;28;1963;-67
2021/01/17 01:25:57;;;;;;;;;;;19.20;56.40;;;;;;5074756;28;1085;-67
2021/01/17 01:28:23;;;;;;;;;;;19.20;56.40;;;;;;5094035;22;2900;-67
2021/01/17 01:30:48;;;;;;;;;;;19.20;56.40;;;;;;5073010;28;1811;-67
2021/01/17 01:33:14;;;;;;;;;;;19.20;56.40;;;;;;5074718;28;1005;-67
2021/01/17 01:35:39;;;;;;;;;;;19.20;56.40;;;;;;5074592;28;1365;-67
2021/01/17 01:38:05;;;;;;;;;;;19.20;56.40;;;;;;5076650;28;1296;-67
2021/01/17 01:40:30;;;;;;;;;;;19.20;56.40;;;;;;5095109;28;1688;-67
2021/01/17 01:42:56;;;;;;;;;;;19.20;56.40;;;;;;5093711;28;1906;-67
2021/01/17 01:45:21;;;;;;;;;;;19.20;56.40;;;;;;5094674;28;1637;-67
2021/01/17 01:47:47;;;;;;;;;;;19.20;56.40;;;;;;5094807;28;1142;-68
2021/01/17 01:50:12;;;;;;;;;;;19.20;56.40;;;;;;5076517;28;1602;-67
2021/01/17 01:52:37;;;;;;;;;;;19.20;56.40;;;;;;5056702;28;1738;-68
2021/01/17 01:55:03;;;;;;;;;;;19.20;56.40;;;;;;5056436;28;1291;-67
2021/01/17 01:57:29;;;;;;;;;;;19.20;56.40;;;;;;5072790;28;1393;-67
2021/01/17 01:59:54;;;;;;;;;;;19.20;56.50;;;;;;5056424;28;1771;-67
2021/01/17 02:02:20;;;;;;;;;;;19.20;56.40;;;;;;5073149;28;1910;-66
2021/01/17 02:04:45;;;;;;;;;;;19.20;56.50;;;;;;5072817;28;1725;-66
2021/01/17 02:07:14;;;;;;;;;;;19.20;56.50;;;;;;5074160;28;1432;-66
2021/01/17 02:09:39;;;;;;;;;;;19.20;56.50;;;;;;5074011;28;1376;-67
2021/01/17 02:12:07;;;;;;;;;;;19.20;56.50;;;;;;5073897;28;1409;-66
2021/01/17 02:14:51;;;;;;;;;;;19.20;56.50;;;;;;5073660;28;1494;-67
2021/01/17 02:17:18;;;;;;;;;;;19.20;56.50;;;;;;5056001;28;1666;-66
2021/01/17 02:20:03;;;;;;;;;;;19.10;56.50;;;;;;5072695;28;1793;-67
2021/01/17 02:22:30;;;;;;;;;;;19.20;56.50;;;;;;5073626;28;1899;-67
2021/01/17 02:25:05;;;;;;;;;;;19.20;56.50;;;;;;5073559;28;1695;-67
2021/01/17 02:27:30;;;;;;;;;;;19.20;56.50;;;;;;5055782;28;1644;-67
2021/01/17 02:29:56;;;;;;;;;;;19.20;56.50;;;;;;5072386;28;1411;-67
2021/01/17 02:32:21;;;;;;;;;;;19.10;56.50;;;;;;5072643;28;1670;-67
2021/01/17 02:34:47;;;;;;;;;;;19.10;56.50;;;;;;5072189;28;1539;-66
2021/01/17 02:37:29;;;;;;;;;;;19.20;56.60;;;;;;5072551;28;1371;-68
2021/01/17 02:39:56;;;;;;;;;;;19.20;56.50;;;;;;5072291;28;1241;-67
2021/01/17 02:42:21;;;;;;;;;;;19.20;56.50;;;;;;5072278;28;1955;-68
2021/01/17 02:44:47;;;;;;;;;;;19.10;56.50;;;;;;5072045;28;1723;-67
2021/01/17 02:47:12;;;;;;;;;;;19.20;56.50;;;;;;5073284;28;1378;-67
2021/01/17 02:49:38;;;;;;;;;;;19.20;56.50;;;;;;5071939;28;1436;-67
2021/01/17 02:52:05;;;;;;;;;;;19.20;56.40;;;;;;5073268;28;1316;-67
2021/01/17 02:54:31;;;;;;;;;;;19.20;56.40;;;;;;5071770;28;1666;-67
2021/01/17 02:56:57;;;;;;;;;;;19.20;56.40;;;;;;5073085;28;1417;-67
2021/01/17 02:59:24;;;;;;;;;;;19.20;56.30;;;;;;5055488;28;1252;-67
2021/01/17 03:01:50;;;;;;;;;;;19.20;56.30;;;;;;5072089;28;1432;-67
2021/01/17 03:04:19;;;;;;;;;;;19.20;56.20;;;;;;5071851;28;1905;-67
2021/01/17 03:06:45;;;;;;;;;;;19.20;56.20;;;;;;5071852;28;1213;-67
2021/01/17 03:09:10;;;;;;;;;;;19.30;56.80;;;;;;5071909;28;1607;-67
2021/01/17 03:11:36;;;;;;;;;;;19.30;56.20;;;;;;5071450;28;1374;-65
2021/01/17 03:14:03;;;;;;;;;;;19.30;56.20;;;;;;5072092;28;1502;-67
2021/01/17 03:16:28;;;;;;;;;;;19.30;56.20;;;;;;5058158;28;1492;-67
2021/01/17 03:18:54;;;;;;;;;;;19.30;56.10;;;;;;5082713;28;1274;-66
2021/01/17 03:21:19;;;;;;;;;;;19.30;56.10;;;;;;5076294;28;988;-65
2021/01/17 03:23:45;;;;;;;;;;;19.30;56.10;;;;;;5053750;28;1965;-66
2021/01/17 03:26:10;;;;;;;;;;;19.30;56.10;;;;;;5085479;28;1418;-66
2021/01/17 03:28:35;;;;;;;;;;;19.30;56.10;;;;;;5072571;28;1463;-65
2021/01/17 03:31:01;;;;;;;;;;;19.30;56.00;;;;;;5086500;28;1395;-65
2021/01/17 03:33:26;;;;;;;;;;;19.30;56.00;;;;;;5081405;28;826;-65
2021/01/17 03:35:52;;;;;;;;;;;19.30;56.00;;;;;;5079387;28;948;-66
2021/01/17 03:38:17;;;;;;;;;;;19.30;56.00;;;;;;5074831;28;1427;-65
2021/01/17 03:40:43;;;;;;;;;;;19.30;56.00;;;;;;5059016;28;1187;-65
2021/01/17 03:43:08;;;;;;;;;;;19.30;56.00;;;;;;5072455;28;1973;-65
2021/01/17 03:45:34;;;;;;;;;;;19.30;55.90;;;;;;5073509;28;1349;-65
2021/01/17 03:47:59;;;;;;;;;;;19.30;56.00;;;;;;5092157;28;1377;-65
2021/01/17 03:50:25;;;;;;;;;;;19.30;56.00;;;;;;5091041;28;1405;-65
2021/01/17 03:52:50;;;;;;;;;;;19.40;56.10;;;;;;5072869;28;1052;-65
2021/01/17 03:55:15;;;;;;;;;;;19.30;56.00;;;;;;5072391;28;1433;-65
2021/01/17 03:57:41;;;;;;;;;;;19.30;55.90;;;;;;5071651;28;1466;-65
2021/01/17 04:00:07;;;;;;;;;;;19.30;55.90;;;;;;5069206;28;1674;-66
2021/01/17 04:02:32;;;;;;;;;;;19.30;55.90;;;;;;5084580;28;1914;-66
2021/01/17 04:04:58;;;;;;;;;;;19.30;55.90;;;;;;5085894;28;883;-65
2021/01/17 04:07:23;;;;;;;;;;;19.30;55.90;;;;;;5075136;28;1095;-65
2021/01/17 04:09:48;;;;;;;;;;;19.30;55.90;;;;;;5076090;28;1189;-65
2021/01/17 04:12:14;;;;;;;;;;;19.30;55.90;;;;;;5076200;28;1143;-65
2021/01/17 04:14:39;;;;;;;;;;;19.30;55.90;;;;;;5075993;28;1163;-65
2021/01/17 04:17:05;;;;;;;;;;;19.30;55.90;;;;;;5074552;28;1103;-65
2021/01/17 04:19:30;;;;;;;;;;;19.40;55.90;;;;;;5076032;28;1385;-65
2021/01/17 04:21:56;;;;;;;;;;;19.40;55.90;;;;;;5083881;28;1075;-65
2021/01/17 04:24:21;;;;;;;;;;;19.40;55.90;;;;;;5081269;28;1890;-66
2021/01/17 04:26:47;;;;;;;;;;;19.40;55.90;;;;;;5075866;28;1166;-66
2021/01/17 04:29:12;;;;;;;;;;;19.40;55.90;;;;;;5075643;28;1345;-65
2021/01/17 04:31:38;;;;;;;;;;;19.40;55.80;;;;;;5075511;28;1056;-65
2021/01/17 04:34:04;;;;;;;;;;;19.40;55.80;;;;;;5075508;28;1112;-65
2021/01/17 04:36:29;;;;;;;;;;;19.40;55.70;;;;;;5083173;28;941;-66
2021/01/17 04:38:55;;;;;;;;;;;19.40;55.80;;;;;;5094889;28;1283;-65
2021/01/17 04:41:20;;;;;;;;;;;19.40;55.70;;;;;;5075942;28;1378;-65
2021/01/17 04:43:51;;;;;;;;;;;19.40;55.70;;;;;;5074146;28;1981;-65
2021/01/17 04:46:16;;;;;;;;;;;19.40;55.80;;;;;;5066169;28;1233;-64
2021/01/17 04:48:42;;;;;;;;;;;19.40;55.70;;;;;;5056219;28;1272;-65
2021/01/17 04:51:07;;;;;;;;;;;19.40;55.70;;;;;;5070437;28;1107;-65
2021/01/17 04:53:33;;;;;;;;;;;19.40;55.80;;;;;;5074445;28;1186;-65
2021/01/17 04:56:08;;;;;;;;;;;19.40;55.70;;;;;;5095539;28;1115;-65
2021/01/17 04:58:34;;;;;;;;;;;19.40;55.70;;;;;;5080288;28;1279;-65
2021/01/17 05:01:00;;;;;;;;;;;19.40;55.70;;;;;;5073955;28;1286;-66
2021/01/17 05:03:31;;;;;;;;;;;19.40;55.70;;;;;;5057097;28;1906;-65
2021/01/17 05:06:15;;;;;;;;;;;19.40;55.80;;;;;;5075083;28;1095;-65
2021/01/17 05:08:44;;;;;;;;;;;19.40;55.70;;;;;;5075024;28;1357;-64
2021/01/17 05:11:14;;;;;;;;;;;19.40;55.70;;;;;;5057101;28;1120;-65
2021/01/17 05:13:48;;;;;;;;;;;19.40;55.80;;;;;;5048559;28;1389;-65
2021/01/17 05:16:14;;;;;;;;;;;19.40;55.70;;;;;;5060578;28;1131;-66
2021/01/17 05:18:44;;;;;;;;;;;19.40;55.70;;;;;;5081229;28;1320;-65
2021/01/17 05:21:10;;;;;;;;;;;19.40;55.80;;;;;;5077042;28;1123;-65
2021/01/17 05:23:35;;;;;;;;;;;19.40;55.70;;;;;;5059768;28;2466;-65
2021/01/17 05:26:01;;;;;;;;;;;19.40;55.70;;;;;;5076817;28;988;-65
2021/01/17 05:28:28;;;;;;;;;;;19.40;55.70;;;;;;5094788;28;1496;-65
2021/01/17 05:30:54;;;;;;;;;;;19.40;55.70;;;;;;5095102;28;1206;-65
2021/01/17 05:33:20;;;;;;;;;;;19.40;55.70;;;;;;5087761;28;1193;-65
2021/01/17 05:35:45;;;;;;;;;;;19.40;55.70;;;;;;5074510;28;1064;-66
2021/01/17 05:38:12;;;;;;;;;;;19.40;55.80;;;;;;5074314;28;1364;-65
2021/01/17 05:40:38;;;;;;;;;;;19.40;55.70;;;;;;5073251;28;1209;-65
2021/01/17 05:43:03;;;;;;;;;;;19.40;55.80;;;;;;5074418;28;1909;-65
2021/01/17 05:45:29;;;;;;;;;;;19.40;55.70;;;;;;5073096;28;1459;-65
2021/01/17 05:47:55;;;;;;;;;;;19.40;55.70;;;;;;5074376;28;1424;-65
2021/01/17 05:50:20;;;;;;;;;;;19.40;55.70;;;;;;5074342;28;1072;-66
2021/01/17 05:52:52;;;;;;;;;;;19.40;55.70;;;;;;5073048;28;1064;-65
2021/01/17 05:55:18;;;;;;;;;;;19.40;55.70;;;;;;5059353;28;1276;-65
2021/01/17 05:57:43;;;;;;;;;;;19.40;55.70;;;;;;5064745;28;1116;-65
2021/01/17 06:00:09;;;;;;;;;;;19.40;55.70;;;;;;5083293;28;1176;-65
2021/01/17 06:02:34;;;;;;;;;;;19.40;55.70;;;;;;5076102;28;1964;-66
2021/01/17 06:05:02;;;;;;;;;;;19.40;55.70;;;;;;5094123;28;1118;-65
2021/01/17 06:07:31;;;;;;;;;;;19.40;55.70;;;;;;5076089;28;1135;-65
2021/01/17 06:09:56;;;;;;;;;;;19.40;55.70;;;;;;5042555;28;1304;-65
2021/01/17 06:12:29;;;;;;;;;;;19.40;55.70;;;;;;5074010;28;1064;-65
2021/01/17 06:15:01;;;;;;;;;;;19.40;55.70;;;;;;5057671;28;1142;-66
2021/01/17 06:17:26;;;;;;;;;;;19.40;55.70;;;;;;5095507;28;1302;-65
2021/01/17 06:19:53;;;;;;;;;;;19.40;55.70;;;;;;5072429;28;1309;-66
2021/01/17 06:22:21;;;;;;;;;;;19.40;55.70;;;;;;5062581;28;1347;-65
2021/01/17 06:24:47;;;;;;;;;;;19.40;55.80;;;;;;5052279;28;1886;-65
2021/01/17 06:27:12;;;;;;;;;;;19.40;55.70;;;;;;5072457;28;1107;-65
2021/01/17 06:29:39;;;;;;;;;;;19.40;55.80;;;;;;5071637;28;1362;-65
2021/01/17 06:32:10;;;;;;;;;;;19.40;55.70;;;;;;5072389;28;1215;-65
2021/01/17 06:34:35;;;;;;;;;;;19.40;55.70;;;;;;5054757;28;1218;-66
2021/01/17 06:37:04;;;;;;;;;;;19.40;55.80;;;;;;5052148;28;1064;-64
2021/01/17 06:39:30;;;;;;;;;;;19.40;55.80;;;;;;5070851;28;1292;-65
2021/01/17 06:41:57;;;;;;;;;;;19.40;55.80;;;;;;5073387;28;1068;-66
2021/01/17 06:44:29;;;;;;;;;;;19.40;55.80;;;;;;5077799;28;1977;-65
2021/01/17 06:46:54;;;;;;;;;;;19.40;55.80;;;;;;5063303;28;1072;-65
2021/01/17 06:49:30;;;;;;;;;;;19.40;55.80;;;;;;5052951;28;1366;-65
2021/01/17 06:51:55;;;;;;;;;;;19.40;55.80;;;;;;5065930;28;1313;-66
2021/01/17 06:54:41;;;;;;;;;;;19.40;55.80;;;;;;5062762;28;1096;-65
2021/01/17 06:57:07;;;;;;;;;;;19.40;55.80;;;;;;5053893;28;1713;-65
2021/01/17 06:59:32;;;;;;;;;;;19.40;55.80;;;;;;5054981;28;1223;-65
2021/01/17 07:02:06;;;;;;;;;;;19.40;55.80;;;;;;5073012;28;1083;-65
2021/01/17 07:04:38;;;;;;;;;;;19.40;55.80;;;;;;5071792;28;1914;-65
2021/01/17 07:07:17;;;;;;;;;;;19.40;55.80;;;;;;5072932;28;1446;-65
2021/01/17 07:10:12;;;;;;;;;;;19.40;55.80;;;;;;5071902;28;1401;-65
2021/01/17 07:12:45;;;;;;;;;;;19.40;55.80;;;;;;5055457;28;1575;-66
2021/01/17 07:15:11;;;;;;;;;;;19.40;55.80;;;;;;5054811;28;1191;-65
2021/01/17 07:17:37;;;;;;;;;;;19.40;55.80;;;;;;5055165;28;1095;-65
2021/01/17 07:20:04;;;;;;;;;;;19.40;55.80;;;;;;5072750;28;1233;-65
2021/01/17 07:22:30;;;;;;;;;;;19.40;55.80;;;;;;5072690;28;1959;-65
2021/01/17 07:24:56;;;;;;;;;;;19.40;55.80;;;;;;5071384;28;1330;-65
2021/01/17 07:27:26;;;;;;;;;;;19.40;55.70;;;;;;5071673;28;1415;-65
2021/01/17 07:29:52;;;;;;;;;;;19.40;55.80;;;;;;5071815;28;1594;-67
2021/01/17 07:32:33;;;;;;;;;;;19.40;55.80;;;;;;5071696;28;1322;-67
2021/01/17 07:35:19;;;;;;;;;;;19.40;55.70;;;;;;5071525;28;1036;-67
2021/01/17 07:37:45;;;;;;;;;;;19.50;55.70;;;;;;5071967;28;1114;-67
2021/01/17 07:40:11;;;;;;;;;;;19.50;55.60;;;;;;5071364;28;1416;-67
2021/01/17 07:42:37;;;;;;;;;;;19.50;55.60;;;;;;5076063;28;1901;-67
2021/01/17 07:45:11;;;;;;;;;;;19.50;55.60;;;;;;5076720;28;1354;-67
2021/01/17 07:47:36;;;;;;;;;;;19.50;55.50;;;;;;5076441;28;937;-67
2021/01/17 07:50:02;;;;;;;;;;;19.50;55.50;;;;;;5075318;28;1240;-67
2021/01/17 07:52:27;;;;;;;;;;;19.50;55.50;;;;;;5076835;28;1385;-67
2021/01/17 07:54:53;;;;;;;;;;;19.50;55.50;;;;;;5076383;28;1405;-67
2021/01/17 07:57:19;;;;;;;;;;;19.50;55.40;;;;;;5076316;28;1442;-67
2021/01/17 07:59:44;;;;;;;;;;;19.50;55.40;;;;;;5058639;28;1317;-68
2021/01/17 08:02:10;;;;;;;;;;;19.50;55.40;;;;;;5076255;28;1283;-67
2021/01/17 08:04:37;;;;;;;;;;;19.50;55.40;;;;;;5074979;28;1963;-67
2021/01/17 08:07:02;;;;;;;;;;;19.50;55.30;;;;;;5074913;28;1333;-67
2021/01/17 08:09:40;;;;;;;;;;;19.50;55.40;;;;;;5076385;28;1276;-67
2021/01/17 08:12:06;;;;;;;;;;;19.50;55.40;;;;;;5076451;28;1076;-68
2021/01/17 08:14:32;;;;;;;;;;;19.50;55.40;;;;;;5075656;28;1083;-67
2021/01/17 08:17:16;;;;;;;;;;;19.50;55.40;;;;;;5076324;28;1294;-67
2021/01/17 08:19:45;;;;;;;;;;;19.50;55.40;;;;;;5075954;28;1414;-67
2021/01/17 08:22:17;;;;;;;;;;;19.50;55.40;;;;;;5074955;28;1424;-67
2021/01/17 08:24:49;;;;;;;;;;;19.50;55.50;;;;;;5075685;28;1927;-67
2021/01/17 08:27:30;;;;;;;;;;;19.50;55.50;;;;;;5077438;28;1131;-67
2021/01/17 08:30:07;;;;;;;;;;;19.50;55.50;;;;;;5075986;28;1203;-67
2021/01/17 08:35:13;;;;;;;;;;;19.50;55.50;;;;;;5075748;28;1303;-68
2021/01/17 08:37:38;;;;;;;;;;;19.50;55.50;;;;;;5075478;28;1328;-68
2021/01/17 08:40:04;;;;;;;;;;;19.50;55.50;;;;;;5074741;28;1275;-67
2021/01/17 08:42:33;;;;;;;;;;;19.50;55.60;;;;;;5075549;28;1906;-67
2021/01/17 08:44:59;;;;;;;;;;;19.50;55.50;;;;;;5074200;28;1352;-67
2021/01/17 08:47:25;;;;;;;;;;;19.50;55.50;;;;;;5075454;28;1119;-67
2021/01/17 08:49:50;;;;;;;;;;;19.50;55.50;;;;;;5075240;28;1302;-67
2021/01/17 08:52:25;;;;;;;;;;;19.50;55.50;;;;;;5074888;28;1131;-68
2021/01/17 08:54:51;;;;;;;;;;;19.50;55.50;;;;;;5074164;28;1351;-67
2021/01/17 08:57:39;;;;;;;;;;;19.50;55.60;;;;;;5075289;28;1346;-67
2021/01/17 09:00:25;;;;;;;;;;;19.50;55.50;;;;;;5057454;28;1321;-68
2021/01/17 09:02:50;;;;;;;;;;;19.50;55.60;;;;;;5074764;28;1902;-67
2021/01/17 09:05:16;;;;;;;;;;;19.50;55.60;;;;;;5073802;28;1328;-68
2021/01/17 09:07:42;;;;;;;;;;;19.50;55.60;;;;;;5074031;28;1428;-67
2021/01/17 09:10:07;;;;;;;;;;;19.50;55.60;;;;;;5057041;28;1203;-67
2021/01/17 09:12:33;;;;;;;;;;;19.50;55.60;;;;;;5075134;28;1295;-67
2021/01/17 09:14:59;;;;;;;;;;;19.50;55.60;;;;;;5075240;28;1290;-68
2021/01/17 09:17:24;;;;;;;;;;;19.50;55.60;;;;;;5075029;28;1112;-67
2021/01/17 09:19:50;;;;;;;;;;;19.50;55.60;;;;;;5073724;28;1298;-68
2021/01/17 09:22:15;;;;;;;;;;;19.50;55.60;;;;;;5075083;28;1372;-67
2021/01/17 09:24:41;;;;;;;;;;;19.50;55.60;;;;;;5073331;28;1957;-68
2021/01/17 09:27:07;;;;;;;;;;;19.50;55.60;;;;;;5073533;28;1629;-67
2021/01/17 09:29:36;;;;;;;;;;;19.50;55.60;;;;;;5074380;28;1352;-67
2021/01/17 09:32:05;;;;;;;;;;;19.50;55.60;;;;;;5074842;28;1154;-68
2021/01/17 09:34:32;;;;;;;;;;;19.50;55.60;;;;;;5074568;28;1390;-67
2021/01/17 09:36:59;;;;;;;;;;;19.50;55.60;;;;;;5073354;28;1028;-67
2021/01/17 09:39:28;;;;;;;;;;;19.50;55.60;;;;;;5074528;28;1296;-67
2021/01/17 09:41:54;;;;;;;;;;;19.50;55.60;;;;;;5074599;28;1294;-67
2021/01/17 09:44:20;;;;;;;;;;;19.50;55.70;;;;;;5072892;28;1921;-67
2021/01/17 09:46:45;;;;;;;;;;;19.50;55.60;;;;;;5073156;28;1312;-68
2021/01/17 09:49:10;;;;;;;;;;;19.40;55.60;;;;;;5074271;28;1353;-67
2021/01/17 09:51:36;;;;;;;;;;;19.50;55.70;;;;;;5074447;28;1083;-67
2021/01/17 09:54:02;;;;;;;;;;;19.50;55.70;;;;;;5074194;28;1162;-67
2021/01/17 09:56:27;;;;;;;;;;;19.40;55.60;;;;;;5074109;28;1305;-67
2021/01/17 09:58:53;;;;;;;;;;;19.50;55.70;;;;;;5073895;28;1284;-68
2021/01/17 10:01:19;;;;;;;;;;;19.40;55.60;;;;;;5073009;28;1206;-67
2021/01/17 10:03:48;;;;;;;;;;;19.40;55.60;;;;;;5073116;28;1960;-67
2021/01/17 10:06:16;;;;;;;;;;;19.40;55.60;;;;;;5073882;28;1283;-67
2021/01/17 10:08:42;;;;;;;;;;;19.50;55.60;;;;;;5074020;28;1380;-67
2021/01/17 10:11:08;;;;;;;;;;;19.50;55.60;;;;;;5073888;28;1084;-67
2021/01/17 10:13:33;;;;;;;;;;;19.50;55.50;;;;;;5067889;28;1513;-67
2021/01/17 10:15:59;;;;;;;;;;;19.70;55.40;;;;;;5076383;28;1127;-68
2021/01/17 10:18:24;;;;;;;;;;;19.70;55.20;;;;;;5093932;28;1281;-67
2021/01/17 10:20:53;;;;;;;;;;;19.80;55.00;;;;;;5084487;28;1908;-66
2021/01/17 10:23:19;;;;;;;;;;;19.90;54.80;;;;;;5054413;28;1902;-66
2021/01/17 10:25:45;;;;;;;;;;;19.90;54.60;;;;;;5073351;28;1299;-66
2021/01/17 10:28:11;;;;;;;;;;;20.00;54.50;;;;;;5073307;28;1349;-67
2021/01/17 10:30:43;;;;;;;;;;;20.10;54.40;;;;;;5073914;28;1382;-67
2021/01/17 10:33:08;;;;;;;;;;;20.20;54.30;;;;;;5072424;28;1347;-67
2021/01/17 10:35:34;;;;;;;;;;;20.20;54.10;;;;;;5073520;28;1351;-67
2021/01/17 10:38:02;;;;;;;;;;;20.30;53.90;;;;;;5071935;28;1318;-67
2021/01/17 10:40:28;;;;;;;;;;;20.40;53.80;;;;;;5073347;28;1239;-67
2021/01/17 10:42:54;;;;;;;;;;;20.50;53.60;;;;;;5071888;28;1906;-67
2021/01/17 10:45:19;;;;;;;;;;;20.50;53.40;;;;;;5060187;28;1571;-67
2021/01/17 10:48:04;;;;;;;;;;;20.60;53.30;;;;;;5090303;28;1338;-67
2021/01/17 10:50:31;;;;;;;;;;;20.70;53.20;;;;;;5091316;28;1083;-67
2021/01/17 10:53:15;;;;;;;;;;;20.80;53.60;;;;;;5071732;28;1354;-67
2021/01/17 10:55:43;;;;;;;;;;;20.80;52.90;;;;;;5072887;28;1307;-67
2021/01/17 10:58:09;;;;;;;;;;;20.90;52.70;;;;;;5071659;28;1320;-67
2021/01/17 11:00:34;;;;;;;;;;;21.00;52.60;;;;;;5055094;28;1347;-67
2021/01/17 11:03:08;;;;;;;;;;;21.00;52.50;;;;;;5072895;28;1902;-67
2021/01/17 11:05:34;;;;;;;;;;;21.10;52.40;;;;;;5055057;28;1240;-67
2021/01/17 11:08:00;;;;;;;;;;;21.10;52.30;;;;;;5072822;28;1334;-67
2021/01/17 11:10:25;;;;;;;;;;;21.20;52.20;;;;;;5073022;28;1355;-67
2021/01/17 11:12:51;;;;;;;;;;;21.20;52.20;;;;;;5055000;28;1324;-67
2021/01/17 11:15:17;;;;;;;;;;;21.20;52.10;;;;;;5054608;28;1348;-67
2021/01/17 11:17:43;;;;;;;;;;;21.30;52.10;;;;;;5072881;28;1303;-67
2021/01/17 11:20:08;;;;;;;;;;;21.20;52.00;;;;;;5072628;28;1309;-67
2021/01/17 11:22:34;;;;;;;;;;;21.30;52.00;;;;;;5054974;28;1208;-67
2021/01/17 11:25:00;;;;;;;;;;;21.30;52.00;;;;;;5072688;28;1474;-67
2021/01/17 11:27:34;;;;;;;;;;;21.30;51.90;;;;;;5072796;28;1350;-67
2021/01/17 11:30:00;;;;;;;;;;;21.30;51.90;;;;;;5072616;28;1321;-67
2021/01/17 11:32:29;;;;;;;;;;;21.40;51.90;;;;;;5072666;28;1393;-67
2021/01/17 11:34:55;;;;;;;;;;;21.40;51.80;;;;;;5072445;28;1262;-67
2021/01/17 11:37:27;;;;;;;;;;;21.40;51.80;;;;;;5072822;28;1330;-67
2021/01/17 11:40:01;;;;;;;;;;;21.40;51.70;;;;;;5071501;28;1369;-67
2021/01/17 11:42:27;;;;;;;;;;;21.40;51.70;;;;;;5072774;28;1309;-67
2021/01/17 11:44:52;;;;;;;;;;;21.50;51.70;;;;;;5072323;28;1910;-67
2021/01/17 11:47:18;;;;;;;;;;;21.50;51.70;;;;;;5071157;28;1311;-67
2021/01/17 11:49:44;;;;;;;;;;;21.50;51.70;;;;;;5072641;28;1364;-67
2021/01/17 11:52:12;;;;;;;;;;;21.50;51.70;;;;;;5071281;28;1213;-67
2021/01/17 11:54:38;;;;;;;;;;;21.50;51.70;;;;;;5071250;28;1359;-67
2021/01/17 11:57:04;;;;;;;;;;;21.50;51.60;;;;;;5072282;28;1294;-68
2021/01/17 11:59:33;;;;;;;;;;;21.50;51.60;;;;;;5072882;28;1315;-67
2021/01/17 12:02:17;;;;;;;;;;;21.50;52.20;;;;;;5071223;28;1333;-67
2021/01/17 12:04:44;;;;;;;;;;;21.50;51.60;;;;;;5072480;28;1983;-67
2021/01/17 12:07:09;;;;;;;;;;;21.60;51.60;;;;;;5071118;28;1291;-67
2021/01/17 12:09:35;;;;;;;;;;;21.60;51.70;;;;;;5072432;28;1387;-67
2021/01/17 12:12:13;;;;;;;;;;;21.60;51.70;;;;;;5070937;28;1369;-67
2021/01/17 12:14:39;;;;;;;;;;;21.60;51.60;;;;;;5058161;28;1155;-67
2021/01/17 12:17:05;;;;;;;;;;;21.60;51.70;;;;;;5092565;28;1341;-67
2021/01/17 12:19:31;;;;;;;;;;;21.50;51.70;;;;;;5074692;28;1381;-67
2021/01/17 12:21:57;;;;;;;;;;;21.50;51.70;;;;;;5074405;28;1368;-67
2021/01/17 12:24:22;;;;;;;;;;;21.50;51.70;;;;;;5074044;28;1902;-67
2021/01/17 12:26:48;;;;;;;;;;;21.50;51.80;;;;;;5092489;28;1262;-67
2021/01/17 12:29:14;;;;;;;;;;;21.50;51.80;;;;;;5096348;28;1284;-67
2021/01/17 12:31:40;;;;;;;;;;;21.50;51.90;;;;;;5078106;28;1373;-67
2021/01/17 12:34:05;;;;;;;;;;;21.50;51.90;;;;;;5077645;28;1147;-67
2021/01/17 12:36:31;;;;;;;;;;;21.40;51.90;;;;;;5096031;28;1360;-67
2021/01/17 12:38:57;;;;;;;;;;;21.40;52.00;;;;;;5095987;28;1302;-67
2021/01/17 12:41:23;;;;;;;;;;;21.40;52.00;;;;;;5095960;28;1318;-67
2021/01/17 12:43:48;;;;;;;;;;;21.40;52.10;;;;;;5095609;28;1976;-67
2021/01/17 12:46:14;;;;;;;;;;;21.40;52.10;;;;;;5095815;28;1289;-67
2021/01/17 12:48:40;;;;;;;;;;;21.30;52.20;;;;;;5077579;28;1310;-68
2021/01/17 12:51:05;;;;;;;;;;;21.30;52.20;;;;;;5070637;28;1291;-67
2021/01/17 12:53:31;;;;;;;;;;;21.30;52.30;;;;;;5075597;28;1302;-68
2021/01/17 12:55:56;;;;;;;;;;;21.30;52.30;;;;;;5075168;28;1178;-68
2021/01/17 12:58:22;;;;;;;;;;;21.30;52.40;;;;;;5075316;28;1350;-68
2021/01/17 13:00:47;;;;;;;;;;;21.30;52.40;;;;;;5075384;28;1350;-68
2021/01/17 13:03:13;;;;;;;;;;;21.20;52.50;;;;;;5075235;28;1967;-67
2021/01/17 13:05:38;;;;;;;;;;;21.20;52.50;;;;;;5075063;28;1418;-68
2021/01/17 13:08:04;;;;;;;;;;;21.20;52.60;;;;;;5075158;28;1337;-67
2021/01/17 13:10:30;;;;;;;;;;;21.20;52.60;;;;;;5073148;28;1342;-67
2021/01/17 13:12:55;;;;;;;;;;;21.10;52.60;;;;;;5075130;28;1331;-67
2021/01/17 13:15:21;;;;;;;;;;;21.10;52.70;;;;;;5074475;28;1327;-67
2021/01/17 13:17:47;;;;;;;;;;;21.10;52.70;;;;;;5055038;28;1210;-67
2021/01/17 13:20:12;;;;;;;;;;;21.10;52.80;;;;;;5074033;28;1317;-67
2021/01/17 13:22:38;;;;;;;;;;;21.00;52.80;;;;;;5067417;28;1210;-67
2021/01/17 13:25:04;;;;;;;;;;;21.00;52.80;;;;;;5072937;28;1945;-67
2021/01/17 13:27:30;;;;;;;;;;;21.00;52.90;;;;;;5073921;28;1135;-67
2021/01/17 13:29:55;;;;;;;;;;;21.00;52.90;;;;;;5074526;28;1270;-67
2021/01/17 13:32:21;;;;;;;;;;;21.00;53.00;;;;;;5074499;28;1287;-65
2021/01/17 13:34:47;;;;;;;;;;;21.00;53.00;;;;;;5073986;28;1570;-65
2021/01/17 13:37:16;;;;;;;;;;;21.00;53.00;;;;;;5074715;28;1303;-65
2021/01/17 13:39:45;;;;;;;;;;;20.90;53.00;;;;;;5070618;28;1366;-66
2021/01/17 13:42:11;;;;;;;;;;;20.90;53.10;;;;;;5074794;28;1342;-67
2021/01/17 13:44:37;;;;;;;;;;;20.90;53.10;;;;;;5073409;28;1910;-66
2021/01/17 13:47:02;;;;;;;;;;;20.90;53.10;;;;;;5072472;28;1372;-66
2021/01/17 13:49:28;;;;;;;;;;;20.90;53.20;;;;;;5072218;28;1311;-67
2021/01/17 13:51:53;;;;;;;;;;;20.90;53.20;;;;;;5072546;28;1253;-66
2021/01/17 13:54:19;;;;;;;;;;;20.80;53.20;;;;;;5071024;28;1319;-66
2021/01/17 13:56:44;;;;;;;;;;;20.80;53.30;;;;;;5072711;28;1674;-66
2021/01/17 13:59:09;;;;;;;;;;;20.80;53.40;;;;;;5072128;28;1200;-66
2021/01/17 14:01:35;;;;;;;;;;;20.80;53.40;;;;;;5074047;28;1325;-66
2021/01/17 14:04:01;;;;;;;;;;;20.80;53.40;;;;;;5073705;28;1922;-66
2021/01/17 14:06:26;;;;;;;;;;;20.80;53.50;;;;;;5073976;28;1370;-66
2021/01/17 14:08:51;;;;;;;;;;;20.70;54.10;;;;;;5073665;28;1291;-67
2021/01/17 14:11:17;;;;;;;;;;;20.70;53.50;;;;;;5074004;28;1387;-66
2021/01/17 14:13:42;;;;;;;;;;;20.70;53.60;;;;;;5073768;28;1371;-66
2021/01/17 14:16:08;;;;;;;;;;;20.70;53.60;;;;;;5073609;28;1335;-66
2021/01/17 14:18:33;;;;;;;;;;;20.70;53.70;;;;;;5072525;28;1327;-66
2021/01/17 14:20:59;;;;;;;;;;;20.60;53.70;;;;;;5073779;28;1080;-66
2021/01/17 14:23:24;;;;;;;;;;;20.60;53.70;;;;;;5073303;28;1901;-66
2021/01/17 14:25:50;;;;;;;;;;;20.60;53.80;;;;;;5073432;28;1307;-66
2021/01/17 14:28:15;;;;;;;;;;;20.60;53.80;;;;;;5073510;28;1366;-66
2021/01/17 14:30:40;;;;;;;;;;;20.60;53.80;;;;;;5073659;28;1331;-66
2021/01/17 14:33:06;;;;;;;;;;;20.60;53.80;;;;;;5073572;28;1414;-66